createdAt,value
2022-12-08T00:04:00.789Z,100404.41
2022-12-08T00:09:13.045Z,100409.41
2022-12-08T00:14:06.813Z,100422.00
2022-12-08T00:19:00.787Z,100397.22
2022-12-08T00:23:56.821Z,100405.75
2022-12-08T00:28:49.982Z,100423.88
2022-12-08T00:33:42.647Z,100399.94
2022-12-08T00:38:37.184Z,100412.44
2022-12-08T00:43:30.657Z,100408.94
2022-12-08T00:48:24.751Z,100374.34
2022-12-08T00:53:17.373Z,100393.03
2022-12-08T00:58:10.927Z,100375.78
2022-12-08T01:03:04.723Z,100389.47
2022-12-08T01:07:59.037Z,100370.88
2022-12-08T01:12:52.611Z,100415.09
2022-12-08T01:17:46.642Z,100403.75
2022-12-08T01:22:39.946Z,100442.50
2022-12-08T01:27:33.727Z,100405.91
2022-12-08T01:32:27.762Z,100438.06
2022-12-08T01:37:21.550Z,100405.44
2022-12-08T01:42:35.408Z,100432.00
2022-12-08T01:47:41.694Z,100408.75
2022-12-08T01:52:43.582Z,100396.38
2022-12-08T01:57:47.641Z,100418.75
2022-12-08T02:02:53.023Z,100400.06
2022-12-08T02:07:49.158Z,100415.28
2022-12-08T02:12:44.635Z,100405.63
2022-12-08T02:17:43.823Z,100387.69
2022-12-08T02:22:48.853Z,100418.09
2022-12-08T02:28:12.603Z,100411.56
2022-12-08T02:33:33.294Z,100402.88
2022-12-08T02:39:05.422Z,100394.09
2022-12-08T02:44:00.915Z,100389.84
2022-12-08T02:48:56.174Z,100354.91
2022-12-08T02:53:49.938Z,100357.91
2022-12-08T02:59:02.930Z,100366.97
2022-12-08T03:04:20.687Z,100361.56
2022-12-08T03:09:32.858Z,100354.78
2022-12-08T03:14:26.908Z,100341.81
2022-12-08T03:19:25.012Z,100309.41
2022-12-08T03:24:19.343Z,100317.63
2022-12-08T03:29:14.261Z,100333.50
2022-12-08T03:34:11.662Z,100333.50
2022-12-08T03:39:05.198Z,100325.56
2022-12-08T03:44:00.411Z,100325.09
2022-12-08T03:48:53.571Z,100300.72
2022-12-08T03:53:47.694Z,100327.34
2022-12-08T03:58:41.606Z,100318.38
2022-12-08T04:03:35.138Z,100276.63
2022-12-08T04:08:29.117Z,100328.97
2022-12-08T04:13:22.977Z,100297.13
2022-12-08T04:18:17.500Z,100328.09
2022-12-08T04:23:12.173Z,100314.22
2022-12-08T04:28:06.674Z,100282.09
2022-12-08T04:33:00.124Z,100317.72
2022-12-08T04:37:52.994Z,100307.97
2022-12-08T04:42:47.057Z,100309.88
2022-12-08T04:47:40.094Z,100278.03
2022-12-08T04:52:34.217Z,100276.22
2022-12-08T04:57:27.414Z,100301.09
2022-12-08T05:02:20.599Z,100309.97
2022-12-08T05:07:14.617Z,100286.63
2022-12-08T05:12:09.102Z,100300.13
2022-12-08T05:17:09.097Z,100292.28
2022-12-08T05:22:03.374Z,100299.28
2022-12-08T05:26:56.862Z,100298.44
2022-12-08T05:31:50.781Z,100271.06
2022-12-08T05:36:44.225Z,100280.69
2022-12-08T05:41:37.918Z,100270.22
2022-12-08T05:46:32.099Z,100268.09
2022-12-08T05:51:25.117Z,100266.50
2022-12-08T05:56:19.465Z,100270.94
2022-12-08T06:01:30.837Z,100295.88
2022-12-08T06:06:24.772Z,100265.69
2022-12-08T06:11:31.122Z,100281.00
2022-12-08T06:16:26.726Z,100305.63
2022-12-08T06:21:20.735Z,100305.72
2022-12-08T06:26:15.666Z,100300.44
2022-12-08T06:31:11.594Z,100302.31
2022-12-08T06:36:06.006Z,100318.97
2022-12-08T06:41:01.182Z,100289.88
2022-12-08T06:45:54.892Z,100312.81
2022-12-08T06:50:48.854Z,100307.50
2022-12-08T06:55:59.315Z,100293.94
2022-12-08T07:00:53.521Z,100318.97
2022-12-08T07:05:46.058Z,100310.06
2022-12-08T07:10:39.121Z,100316.31
2022-12-08T07:15:32.020Z,100320.56
2022-12-08T07:20:25.616Z,100331.97
2022-12-08T07:25:19.549Z,100299.41
2022-12-08T07:30:14.467Z,100292.41
2022-12-08T07:35:08.530Z,100314.81
2022-12-08T07:40:01.484Z,100317.25
2022-12-08T07:44:55.127Z,100320.84
2022-12-08T07:49:48.913Z,100321.69
2022-12-08T07:54:41.842Z,100274.69
2022-12-08T07:59:35.864Z,100304.97
2022-12-08T08:04:29.422Z,100280.22
2022-12-08T08:09:22.876Z,100308.47
2022-12-08T08:14:16.262Z,100286.16
2022-12-08T08:19:10.161Z,100327.19
2022-12-08T08:24:03.719Z,100272.03
2022-12-08T08:28:57.569Z,100303.28
2022-12-08T08:33:51.122Z,100300.28
2022-12-08T08:38:44.477Z,100320.75
2022-12-08T08:43:38.837Z,100338.63
2022-12-08T08:48:33.380Z,100308.28
2022-12-08T08:53:27.792Z,100338.50
2022-12-08T08:58:21.225Z,100328.16
2022-12-08T09:03:14.415Z,100328.44
2022-12-08T09:08:07.760Z,100323.97
2022-12-08T09:13:00.530Z,100343.72
2022-12-08T09:17:54.702Z,100347.41
2022-12-08T09:22:47.836Z,100323.63
2022-12-08T09:27:41.673Z,100343.09
2022-12-08T09:32:35.779Z,100324.38
2022-12-08T09:37:29.519Z,100322.69
2022-12-08T09:42:43.722Z,100354.50
2022-12-08T09:47:41.956Z,100316.53
2022-12-08T09:52:42.397Z,100312.16
2022-12-08T09:57:37.234Z,100323.78
2022-12-08T10:02:31.217Z,100301.50
2022-12-08T10:07:28.629Z,100317.63
2022-12-08T10:12:34.718Z,100305.94
2022-12-08T10:17:34.983Z,100301.28
2022-12-08T10:22:35.315Z,100330.69
2022-12-08T10:27:34.302Z,100309.69
2022-12-08T10:32:35.198Z,100302.41
2022-12-08T10:37:28.834Z,100289.28
2022-12-08T10:42:23.122Z,100285.22
2022-12-08T10:47:17.209Z,100273.41
2022-12-08T10:52:24.079Z,100231.69
2022-12-08T10:57:29.230Z,100228.28
2022-12-08T11:02:23.155Z,100243.38
2022-12-08T11:07:23.286Z,100255.94
2022-12-08T11:12:22.673Z,100217.88
2022-12-08T11:17:21.961Z,100229.47
2022-12-08T11:22:25.360Z,100226.69
2022-12-08T11:27:19.460Z,100225.00
2022-12-08T11:32:14.560Z,100211.25
2022-12-08T11:37:14.622Z,100211.44
2022-12-08T11:42:13.936Z,100232.22
2022-12-08T11:47:38.048Z,100216.97
2022-12-08T11:52:36.041Z,100195.66
2022-12-08T11:57:30.349Z,100186.31
2022-12-08T12:02:26.393Z,100210.00
2022-12-08T12:07:31.201Z,100208.09
2022-12-08T12:12:39.854Z,100219.72
2022-12-08T12:17:45.606Z,100202.81
2022-12-08T12:22:39.633Z,100217.94
2022-12-08T12:27:41.166Z,100175.31
2022-12-08T12:32:59.168Z,100185.41
2022-12-08T12:37:57.521Z,100186.25
2022-12-08T12:42:56.946Z,100178.31
2022-12-08T12:47:57.463Z,100170.47
2022-12-08T12:52:51.054Z,100141.97
2022-12-08T12:57:56.545Z,100148.09
2022-12-08T13:02:52.917Z,100151.44
2022-12-08T13:08:00.697Z,100145.69
2022-12-08T13:13:17.222Z,100162.44
2022-12-08T13:18:27.177Z,100139.53
2022-12-08T13:23:37.486Z,100172.19
2022-12-08T13:28:31.955Z,100146.53
2022-12-08T13:33:41.482Z,100171.03
2022-12-08T13:38:38.234Z,100160.34
2022-12-08T13:44:31.204Z,100118.78
2022-12-08T13:50:54.879Z,100159.59
2022-12-08T13:56:05.419Z,100158.00
2022-12-08T13:59:54.059Z,100146.97
2022-12-08T14:05:17.306Z,100141.72
2022-12-08T14:10:02.350Z,100150.97
2022-12-08T14:15:05.253Z,100167.94
2022-12-08T14:19:59.989Z,100180.75
2022-12-08T14:24:55.732Z,100140.16
2022-12-08T14:29:57.610Z,100173.78
2022-12-08T14:35:01.461Z,100161.59
2022-12-08T14:40:05.615Z,100159.69
2022-12-08T14:45:03.634Z,100138.19
2022-12-08T14:49:57.040Z,100162.44
2022-12-08T14:54:51.637Z,100139.78
2022-12-08T14:59:47.341Z,100163.94
2022-12-08T15:04:43.807Z,100180.66
2022-12-08T15:09:40.509Z,100163.94
2022-12-08T15:14:37.645Z,100147.59
2022-12-08T15:19:35.057Z,100136.38
2022-12-08T15:24:30.798Z,100148.56
2022-12-08T15:29:30.696Z,100154.16
2022-12-08T15:34:23.323Z,100166.78
2022-12-08T15:39:21.457Z,100134.88
2022-12-08T15:44:14.776Z,100136.38
2022-12-08T15:49:23.046Z,100169.03
2022-12-08T15:54:17.022Z,100159.69
2022-12-08T15:59:19.610Z,100158.84
2022-12-08T16:09:34.370Z,100181.50
2022-12-08T16:19:41.923Z,100170.19
2022-12-08T16:24:35.795Z,100169.13
2022-12-08T16:29:30.233Z,100175.47
2022-12-08T16:34:25.145Z,100160.09
2022-12-08T16:39:18.942Z,100183.84
2022-12-08T16:44:12.420Z,100175.16
2022-12-08T16:49:09.014Z,100181.31
2022-12-08T16:54:03.182Z,100175.81
2022-12-08T16:58:57.258Z,100181.31
2022-12-08T17:04:22.364Z,100158.34
2022-12-08T17:09:05.390Z,100151.97
2022-12-08T17:13:59.650Z,100160.22
2022-12-08T17:19:13.363Z,100138.19
2022-12-08T17:24:08.041Z,100188.28
2022-12-08T17:29:03.521Z,100177.81
2022-12-08T17:33:59.465Z,100176.88
2022-12-08T17:38:52.855Z,100158.84
2022-12-08T17:43:46.742Z,100165.31
2022-12-08T17:48:40.565Z,100144.00
2022-12-08T17:53:37.527Z,100140.31
2022-12-08T17:58:31.982Z,100114.75
2022-12-08T18:03:25.713Z,100161.53
2022-12-08T18:08:19.217Z,100157.38
2022-12-08T18:13:13.244Z,100144.66
2022-12-08T18:18:07.190Z,100180.06
2022-12-08T18:23:00.815Z,100166.16
2022-12-08T18:27:54.971Z,100171.38
2022-12-08T18:32:50.724Z,100170.50
2022-12-08T18:37:47.474Z,100174.66
2022-12-08T18:42:40.954Z,100160.34
2022-12-08T18:47:36.259Z,100167.78
2022-12-08T18:52:32.313Z,100176.56
2022-12-08T18:57:26.258Z,100184.50
2022-12-08T19:02:20.757Z,100173.72
2022-12-08T19:07:15.091Z,100165.63
2022-12-08T19:12:09.344Z,100178.25
2022-12-08T19:17:02.387Z,100146.56
2022-12-08T19:21:56.356Z,100165.97
2022-12-08T19:26:50.750Z,100147.09
2022-12-08T19:31:44.674Z,100145.00
2022-12-08T19:36:42.884Z,100151.97
2022-12-08T19:41:56.114Z,100158.91
2022-12-08T19:46:50.107Z,100119.06
2022-12-08T19:51:44.040Z,100153.59
2022-12-08T19:56:37.838Z,100134.06
2022-12-08T20:01:31.839Z,100125.28
2022-12-08T20:06:27.321Z,100163.22
2022-12-08T20:11:21.823Z,100157.91
2022-12-08T20:16:16.295Z,100159.63
2022-12-08T20:21:11.746Z,100138.00
2022-12-08T20:26:06.074Z,100130.47
2022-12-08T20:30:59.501Z,100112.69
2022-12-08T20:36:01.367Z,100151.69
2022-12-08T20:40:55.539Z,100138.25
2022-12-08T20:45:48.139Z,100104.44
2022-12-08T20:50:41.800Z,100149.78
2022-12-08T20:55:36.409Z,100158.59
2022-12-08T21:00:29.647Z,100130.03
2022-12-08T21:05:23.876Z,100135.28
2022-12-08T21:10:18.012Z,100125.78
2022-12-08T21:15:12.533Z,100140.84
2022-12-08T21:20:08.666Z,100140.41
2022-12-08T21:25:02.398Z,100137.78
2022-12-08T21:29:55.868Z,100143.00
2022-12-08T21:34:49.555Z,100139.06
2022-12-08T21:39:43.224Z,100122.47
2022-12-08T21:44:37.863Z,100141.22
2022-12-08T21:49:31.140Z,100148.72
2022-12-08T21:54:25.613Z,100141.13
2022-12-08T21:59:21.253Z,100132.13
2022-12-08T22:04:25.174Z,100129.47
2022-12-08T22:09:20.534Z,100143.25
2022-12-08T22:14:19.320Z,100135.22
2022-12-08T22:19:19.582Z,100117.06
2022-12-08T22:24:18.683Z,100118.44
2022-12-08T22:29:14.859Z,100141.34
2022-12-08T22:34:13.955Z,100097.28
2022-12-08T22:39:15.956Z,100116.56
2022-12-08T22:44:15.210Z,100140.63
2022-12-08T22:49:11.210Z,100134.34
2022-12-08T22:54:11.270Z,100107.03
2022-12-08T22:59:11.902Z,100122.59
2022-12-08T23:04:17.634Z,100134.56
2022-12-08T23:09:14.564Z,100131.28
2022-12-08T23:14:08.237Z,100100.03
2022-12-08T23:19:03.684Z,100106.59
2022-12-08T23:23:58.764Z,100128.66
2022-12-08T23:28:53.297Z,100103.63
2022-12-08T23:33:47.855Z,100099.84
2022-12-08T23:38:41.107Z,100098.00
2022-12-08T23:43:35.473Z,100096.53
2022-12-08T23:48:33.512Z,100073.56
2022-12-08T23:53:28.441Z,100076.94
2022-12-08T23:58:22.236Z,100098.31
